createdAt,value
2018-12-14T00:01:22.133Z,2.23
2018-12-14T00:03:50.458Z,2.22
2018-12-14T00:06:18.769Z,2.20
2018-12-14T00:08:47.085Z,2.20
2018-12-14T00:11:15.390Z,2.18
2018-12-14T00:13:43.719Z,2.17
2018-12-14T00:16:12.047Z,2.12
2018-12-14T00:18:40.370Z,2.04
2018-12-14T00:21:08.739Z,1.93
2018-12-14T00:23:37.064Z,1.90
2018-12-14T00:26:05.384Z,1.86
2018-12-14T00:28:33.692Z,1.83
2018-12-14T00:31:02.006Z,1.90
2018-12-14T00:33:30.324Z,2.00
2018-12-14T00:35:58.643Z,2.04
2018-12-14T00:38:26.975Z,2.04
2018-12-14T00:40:55.291Z,2.01
2018-12-14T00:43:23.622Z,2.00
2018-12-14T00:45:51.939Z,2.04
2018-12-14T00:48:20.264Z,2.01
2018-12-14T00:50:48.596Z,1.96
2018-12-14T00:53:16.917Z,1.90
2018-12-14T00:55:45.233Z,1.82
2018-12-14T00:58:13.569Z,1.75
2018-12-14T01:00:41.885Z,1.73
2018-12-14T01:03:10.207Z,1.76
2018-12-14T01:05:38.514Z,1.72
2018-12-14T01:08:06.838Z,1.68
2018-12-14T01:10:35.155Z,1.67
2018-12-14T01:13:03.482Z,1.65
2018-12-14T01:15:31.788Z,1.68
2018-12-14T01:18:00.126Z,1.69
2018-12-14T01:20:28.443Z,1.73
2018-12-14T01:22:56.789Z,1.81
2018-12-14T01:25:25.102Z,1.86
2018-12-14T01:27:53.429Z,1.86
2018-12-14T01:30:21.751Z,1.77
2018-12-14T01:32:50.073Z,1.79
2018-12-14T01:35:18.396Z,1.87
2018-12-14T01:37:46.707Z,1.92
2018-12-14T01:40:15.023Z,1.96
2018-12-14T01:42:43.858Z,1.94
2018-12-14T01:45:12.176Z,1.88
2018-12-14T01:47:40.493Z,1.84
2018-12-14T01:50:08.802Z,1.82
2018-12-14T01:52:37.114Z,1.85
2018-12-14T01:55:05.424Z,1.77
2018-12-14T01:57:33.743Z,1.69
2018-12-14T02:00:02.069Z,1.63
2018-12-14T02:02:30.391Z,1.58
2018-12-14T02:04:58.725Z,1.53
2018-12-14T02:07:27.063Z,1.53
2018-12-14T02:09:55.391Z,1.61
2018-12-14T02:12:23.723Z,1.68
2018-12-14T02:14:52.045Z,1.70
2018-12-14T02:17:20.368Z,1.71
2018-12-14T02:19:48.689Z,1.73
2018-12-14T02:22:17.004Z,1.74
2018-12-14T02:24:45.347Z,1.69
2018-12-14T02:27:13.672Z,1.66
2018-12-14T02:29:41.992Z,1.60
2018-12-14T02:32:10.323Z,1.62
2018-12-14T02:34:38.668Z,1.68
2018-12-14T02:37:06.993Z,1.72
2018-12-14T02:39:35.307Z,1.75
2018-12-14T02:42:03.618Z,1.77
2018-12-14T02:44:31.942Z,1.78
2018-12-14T02:47:00.255Z,1.77
2018-12-14T02:49:28.570Z,1.76
2018-12-14T02:51:56.888Z,1.75
2018-12-14T02:54:25.205Z,1.73
2018-12-14T02:56:53.523Z,1.71
2018-12-14T02:59:21.839Z,1.70
2018-12-14T03:01:50.174Z,1.70
2018-12-14T03:04:18.485Z,1.70
2018-12-14T03:06:46.817Z,1.66
2018-12-14T03:09:15.117Z,1.59
2018-12-14T03:11:43.434Z,1.50
2018-12-14T03:14:11.761Z,1.42
2018-12-14T03:16:40.088Z,1.35
2018-12-14T03:19:08.621Z,1.36
2018-12-14T03:21:36.726Z,1.42
2018-12-14T03:24:05.047Z,1.48
2018-12-14T03:26:33.408Z,1.52
2018-12-14T03:29:01.740Z,1.53
2018-12-14T03:31:30.062Z,1.57
2018-12-14T03:33:58.378Z,1.60
2018-12-14T03:36:26.708Z,1.48
2018-12-14T03:38:55.021Z,1.36
2018-12-14T03:41:23.345Z,1.25
2018-12-14T03:43:51.677Z,1.24
2018-12-14T03:46:19.997Z,1.32
2018-12-14T03:48:48.351Z,1.37
2018-12-14T03:51:16.671Z,1.44
2018-12-14T03:53:45.005Z,1.49
2018-12-14T03:56:13.321Z,1.50
2018-12-14T03:58:41.676Z,1.51
2018-12-14T04:01:09.971Z,1.50
2018-12-14T04:03:38.285Z,1.48
2018-12-14T04:06:06.606Z,1.47
2018-12-14T04:08:34.932Z,1.44
2018-12-14T04:11:03.247Z,1.41
2018-12-14T04:13:31.568Z,1.39
2018-12-14T04:15:59.894Z,1.37
2018-12-14T04:18:28.214Z,1.37
2018-12-14T04:20:56.528Z,1.35
2018-12-14T04:23:24.847Z,1.35
2018-12-14T04:25:53.180Z,1.32
2018-12-14T04:28:21.522Z,1.26
2018-12-14T04:30:49.845Z,1.22
2018-12-14T04:33:18.180Z,1.22
2018-12-14T04:35:46.508Z,1.23
2018-12-14T04:38:14.829Z,1.24
2018-12-14T04:40:43.159Z,1.25
2018-12-14T04:43:11.480Z,1.23
2018-12-14T04:45:39.793Z,1.19
2018-12-14T04:48:08.126Z,1.16
2018-12-14T04:50:36.440Z,1.17
2018-12-14T04:53:04.759Z,1.21
2018-12-14T04:55:33.084Z,1.25
2018-12-14T04:58:01.406Z,1.30
2018-12-14T05:00:29.726Z,1.33
2018-12-14T05:02:58.070Z,1.35
2018-12-14T05:05:26.393Z,1.35
2018-12-14T05:07:54.943Z,1.36
2018-12-14T05:10:23.305Z,1.43
2018-12-14T05:12:56.150Z,1.48
2018-12-14T05:15:19.979Z,1.52
2018-12-14T05:17:48.301Z,1.56
2018-12-14T05:20:16.622Z,1.57
2018-12-14T05:22:44.944Z,1.48
2018-12-14T05:25:13.276Z,1.36
2018-12-14T05:27:41.602Z,1.26
2018-12-14T05:30:09.963Z,1.25
2018-12-14T05:32:38.289Z,1.24
2018-12-14T05:35:06.619Z,1.23
2018-12-14T05:37:34.947Z,1.26
2018-12-14T05:40:03.290Z,1.31
2018-12-14T05:42:31.607Z,1.33
2018-12-14T05:44:59.934Z,1.41
2018-12-14T05:47:28.263Z,1.49
2018-12-14T05:49:56.592Z,1.56
2018-12-14T05:52:24.959Z,1.59
2018-12-14T05:54:53.264Z,1.60
2018-12-14T05:57:21.586Z,1.61
2018-12-14T05:59:49.907Z,1.60
2018-12-14T06:02:18.233Z,1.52
2018-12-14T06:04:46.556Z,1.41
2018-12-14T06:07:14.896Z,1.32
2018-12-14T06:09:43.219Z,1.28
2018-12-14T06:12:11.544Z,1.32
2018-12-14T06:14:39.866Z,1.34
2018-12-14T06:17:08.201Z,1.40
2018-12-14T06:19:36.535Z,1.50
2018-12-14T06:22:04.905Z,1.57
2018-12-14T06:24:33.235Z,1.60
2018-12-14T06:27:01.562Z,1.62
2018-12-14T06:29:29.916Z,1.62
2018-12-14T06:31:58.285Z,1.64
2018-12-14T06:34:27.193Z,1.63
2018-12-14T06:36:55.292Z,1.63
2018-12-14T06:39:23.613Z,1.59
2018-12-14T06:41:51.946Z,1.56
2018-12-14T06:44:20.273Z,1.48
2018-12-14T06:46:48.610Z,1.46
2018-12-14T06:49:16.939Z,1.47
2018-12-14T06:51:45.459Z,1.54
2018-12-14T06:54:13.786Z,1.59
2018-12-14T06:56:42.106Z,1.64
2018-12-14T06:59:10.463Z,1.69
2018-12-14T07:01:38.786Z,1.70
2018-12-14T07:04:07.110Z,1.74
2018-12-14T07:06:35.491Z,1.73
2018-12-14T07:09:03.779Z,1.73
2018-12-14T07:11:32.104Z,1.73
2018-12-14T07:14:00.428Z,1.71
2018-12-14T07:16:28.760Z,1.71
2018-12-14T07:18:57.115Z,1.73
2018-12-14T07:21:25.458Z,1.70
2018-12-14T07:23:53.788Z,1.67
2018-12-14T07:26:22.113Z,1.68
2018-12-14T07:28:50.445Z,1.70
2018-12-14T07:31:18.784Z,1.71
2018-12-14T07:33:47.129Z,1.72
2018-12-14T07:36:15.476Z,1.71
2018-12-14T07:38:48.091Z,1.72
2018-12-14T07:41:12.129Z,1.75
2018-12-14T07:43:40.450Z,1.77
2018-12-14T07:46:08.794Z,1.78
2018-12-14T07:48:37.147Z,1.80
2018-12-14T07:51:05.497Z,1.84
2018-12-14T07:53:33.827Z,1.88
2018-12-14T07:56:02.166Z,1.90
2018-12-14T07:58:30.498Z,1.90
2018-12-14T08:00:58.833Z,1.93
2018-12-14T08:03:27.197Z,1.97
2018-12-14T08:05:55.789Z,1.98
2018-12-14T08:08:24.127Z,1.98
2018-12-14T08:10:52.676Z,1.93
2018-12-14T08:13:20.783Z,1.86
2018-12-14T08:15:49.118Z,1.80
2018-12-14T08:18:17.453Z,1.71
2018-12-14T08:20:45.788Z,1.68
2018-12-14T08:23:14.139Z,1.69
2018-12-14T08:25:42.500Z,1.66
2018-12-14T08:28:10.820Z,1.64
2018-12-14T08:30:39.148Z,1.60
2018-12-14T08:33:07.484Z,1.59
2018-12-14T08:35:36.165Z,1.59
2018-12-14T08:38:04.516Z,1.58
2018-12-14T08:40:33.082Z,1.59
2018-12-14T08:43:01.179Z,1.59
2018-12-14T08:45:29.508Z,1.58
2018-12-14T08:47:57.918Z,1.60
2018-12-14T08:50:26.260Z,1.61
2018-12-14T08:52:54.592Z,1.67
2018-12-14T08:55:23.269Z,1.76
2018-12-14T08:57:51.602Z,1.78
2018-12-14T09:00:19.931Z,1.75
2018-12-14T09:02:48.942Z,1.74
2018-12-14T09:05:17.275Z,1.72
2018-12-14T09:07:45.612Z,1.70
2018-12-14T09:10:14.074Z,1.73
2018-12-14T09:12:42.402Z,1.75
2018-12-14T09:15:10.739Z,1.78
2018-12-14T09:17:39.931Z,1.79
2018-12-14T09:20:08.265Z,1.85
2018-12-14T09:22:36.611Z,1.92
2018-12-14T09:25:05.494Z,1.97
2018-12-14T09:27:33.595Z,1.92
2018-12-14T09:30:01.943Z,1.92
2018-12-14T09:32:30.613Z,1.87
2018-12-14T09:34:58.942Z,1.81
2018-12-14T09:37:27.332Z,1.77
2018-12-14T09:39:57.269Z,1.75
2018-12-14T09:42:24.025Z,1.72
2018-12-14T09:44:52.576Z,1.71
2018-12-14T09:47:20.954Z,1.71
2018-12-14T09:49:49.089Z,1.68
2018-12-14T09:52:17.438Z,1.66
2018-12-14T09:54:45.781Z,1.64
2018-12-14T09:57:14.141Z,1.68
2018-12-14T09:59:42.477Z,1.68
2018-12-14T10:02:10.815Z,1.66
2018-12-14T10:04:39.165Z,1.69
2018-12-14T10:07:07.493Z,1.75
2018-12-14T10:09:35.848Z,1.75
2018-12-14T10:12:04.205Z,1.75
2018-12-14T10:14:32.587Z,1.76
2018-12-14T10:17:00.907Z,1.77
2018-12-14T10:19:30.030Z,1.83
2018-12-14T10:21:58.361Z,1.90
2018-12-14T10:24:26.704Z,1.90
2018-12-14T10:26:55.047Z,1.84
2018-12-14T10:29:23.703Z,1.81
2018-12-14T10:31:52.272Z,1.81
2018-12-14T10:34:20.395Z,1.82
2018-12-14T10:36:48.724Z,1.86
2018-12-14T10:39:17.050Z,1.95
2018-12-14T10:41:45.421Z,2.03
2018-12-14T10:44:13.773Z,2.11
2018-12-14T10:46:42.115Z,2.03
2018-12-14T10:49:10.456Z,1.94
2018-12-14T10:51:38.785Z,1.95
2018-12-14T10:54:07.388Z,1.96
2018-12-14T10:56:35.735Z,2.03
2018-12-14T10:59:04.122Z,2.08
2018-12-14T11:01:38.456Z,2.03
2018-12-14T11:04:06.791Z,1.96
2018-12-14T11:06:35.131Z,1.95
2018-12-14T11:09:03.465Z,1.92
2018-12-14T11:11:31.791Z,1.89
2018-12-14T11:14:00.123Z,1.89
2018-12-14T11:16:28.560Z,1.91
2018-12-14T11:18:56.903Z,1.92
2018-12-14T11:21:25.235Z,2.01
2018-12-14T11:23:53.565Z,2.10
2018-12-14T11:26:21.887Z,2.13
2018-12-14T11:28:50.218Z,2.19
2018-12-14T11:31:18.553Z,2.26
2018-12-14T11:33:46.885Z,2.23
2018-12-14T11:36:15.209Z,2.22
2018-12-14T11:38:43.538Z,2.22
2018-12-14T11:41:18.223Z,2.17
2018-12-14T11:43:40.255Z,2.12
2018-12-14T11:46:08.598Z,2.11
2018-12-14T11:48:36.953Z,2.08
2018-12-14T11:51:05.299Z,2.09
2018-12-14T11:53:33.634Z,2.11
2018-12-14T11:56:01.972Z,2.07
2018-12-14T11:58:30.618Z,2.13
2018-12-14T12:00:58.950Z,2.21
2018-12-14T12:03:27.289Z,2.29
2018-12-14T12:05:55.619Z,2.29
2018-12-14T12:08:23.975Z,2.28
2018-12-14T12:10:52.315Z,2.29
2018-12-14T12:13:20.629Z,2.29
2018-12-14T12:15:48.966Z,2.22
2018-12-14T12:18:17.291Z,2.16
2018-12-14T12:20:45.632Z,2.11
2018-12-14T12:23:13.970Z,2.06
2018-12-14T12:25:42.321Z,2.01
2018-12-14T12:28:10.639Z,2.01
2018-12-14T12:30:38.977Z,2.00
2018-12-14T12:33:07.310Z,1.99
2018-12-14T12:35:35.666Z,1.98
2018-12-14T12:38:03.997Z,1.99
2018-12-14T12:40:32.353Z,2.02
2018-12-14T12:43:00.703Z,2.02
2018-12-14T12:45:29.048Z,2.04
2018-12-14T12:47:57.387Z,2.06
2018-12-14T12:50:25.715Z,2.07
2018-12-14T12:52:54.036Z,2.08
2018-12-14T12:55:22.398Z,2.10
2018-12-14T12:57:50.745Z,2.09
2018-12-14T13:00:19.065Z,2.08
2018-12-14T13:02:47.407Z,2.09
2018-12-14T13:05:15.963Z,2.14
2018-12-14T13:07:44.063Z,2.20
2018-12-14T13:10:12.407Z,2.26
2018-12-14T13:12:40.735Z,2.29
2018-12-14T13:15:09.085Z,2.34
2018-12-14T13:17:37.421Z,2.39
2018-12-14T13:20:05.743Z,2.41
2018-12-14T13:22:34.091Z,2.40
2018-12-14T13:25:02.418Z,2.42
2018-12-14T13:27:30.756Z,2.42
2018-12-14T13:29:59.099Z,2.42
2018-12-14T13:32:27.426Z,2.41
2018-12-14T13:34:55.761Z,2.37
2018-12-14T13:37:24.105Z,2.32
2018-12-14T13:39:52.446Z,2.28
2018-12-14T13:42:20.799Z,2.26
2018-12-14T13:44:49.128Z,2.22
2018-12-14T13:47:17.470Z,2.19
2018-12-14T13:49:45.801Z,2.16
2018-12-14T13:52:14.174Z,2.12
2018-12-14T13:54:42.511Z,2.16
2018-12-14T13:57:10.837Z,2.24
2018-12-14T13:59:39.181Z,2.30
2018-12-14T14:02:07.516Z,2.32
2018-12-14T14:04:36.013Z,2.32
2018-12-14T14:07:04.190Z,2.32
2018-12-14T14:09:33.780Z,2.31
2018-12-14T14:12:02.124Z,2.21
2018-12-14T14:14:30.477Z,2.16
2018-12-14T14:16:58.815Z,2.09
2018-12-14T14:19:27.162Z,2.10
2018-12-14T14:21:55.506Z,2.17
2018-12-14T14:24:23.840Z,2.18
2018-12-14T14:26:52.523Z,2.14
2018-12-14T14:29:20.849Z,2.14
2018-12-14T14:31:49.547Z,2.18
2018-12-14T14:34:18.212Z,2.23
2018-12-14T14:36:46.533Z,2.27
2018-12-14T14:39:15.148Z,2.29
2018-12-14T14:41:43.491Z,2.33
2018-12-14T14:44:12.053Z,2.39
2018-12-14T14:46:40.206Z,2.41
2018-12-14T14:49:08.563Z,2.42
2018-12-14T14:51:37.516Z,2.43
2018-12-14T14:54:05.862Z,2.44
2018-12-14T14:56:34.222Z,2.42
2018-12-14T14:59:02.596Z,2.43
2018-12-14T15:01:30.901Z,2.45
2018-12-14T15:03:59.322Z,2.47
2018-12-14T15:06:27.614Z,2.50
2018-12-14T15:08:56.022Z,2.52
2018-12-14T15:11:24.736Z,2.50
2018-12-14T15:13:53.442Z,2.52
2018-12-14T15:16:21.836Z,2.51
2018-12-14T15:18:50.229Z,2.50
2018-12-14T15:21:18.589Z,2.46
2018-12-14T15:23:48.072Z,2.48
2018-12-14T15:26:16.391Z,2.49
2018-12-14T15:28:44.757Z,2.52
2018-12-14T15:31:13.204Z,2.57
2018-12-14T15:33:41.559Z,2.62
2018-12-14T15:36:09.896Z,2.63
2018-12-14T15:38:38.552Z,2.66
2018-12-14T15:41:06.909Z,2.66
2018-12-14T15:43:35.295Z,2.68
2018-12-14T15:46:03.586Z,2.70
2018-12-14T15:48:31.969Z,2.70
2018-12-14T15:51:00.654Z,2.71
2018-12-14T15:53:33.140Z,2.70
2018-12-14T15:56:02.431Z,2.66
2018-12-14T15:58:30.796Z,2.65
2018-12-14T16:00:59.404Z,2.66
2018-12-14T16:03:28.168Z,2.62
2018-12-14T16:05:56.514Z,2.63
2018-12-14T16:08:24.863Z,2.66
2018-12-14T16:10:53.289Z,2.68
2018-12-14T16:13:21.632Z,2.67
2018-12-14T16:15:49.977Z,2.64
2018-12-14T16:18:18.546Z,2.63
2018-12-14T16:20:46.651Z,2.63
2018-12-14T16:23:15.176Z,2.62
2018-12-14T16:25:43.503Z,2.61
2018-12-14T16:28:11.946Z,2.59
2018-12-14T16:30:40.186Z,2.57
2018-12-14T16:33:08.519Z,2.57
2018-12-14T16:35:36.928Z,2.55
2018-12-14T16:38:05.613Z,2.51
2018-12-14T16:40:33.951Z,2.52
2018-12-14T16:43:02.555Z,2.54
2018-12-14T16:45:30.952Z,2.54
2018-12-14T16:47:59.787Z,2.54
2018-12-14T16:50:29.047Z,2.50
2018-12-14T16:52:57.517Z,2.49
2018-12-14T16:55:26.275Z,2.51
2018-12-14T16:57:54.666Z,2.54
2018-12-14T17:00:22.953Z,2.61
2018-12-14T17:02:51.682Z,2.58
2018-12-14T17:05:20.175Z,2.51
2018-12-14T17:07:48.498Z,2.50
2018-12-14T17:10:16.825Z,2.52
2018-12-14T17:12:45.288Z,2.49
2018-12-14T17:15:13.622Z,2.44
2018-12-14T17:17:42.314Z,2.43
2018-12-14T17:20:10.866Z,2.41
2018-12-14T17:22:39.311Z,2.43
2018-12-14T17:25:07.546Z,2.47
2018-12-14T17:27:36.489Z,2.49
2018-12-14T17:30:05.345Z,2.50
2018-12-14T17:32:33.696Z,2.52
2018-12-14T17:35:02.074Z,2.57
2018-12-14T17:37:30.498Z,2.57
2018-12-14T17:39:58.963Z,2.56
2018-12-14T17:42:27.363Z,2.61
2018-12-14T17:44:55.694Z,2.66
2018-12-14T17:47:24.446Z,2.72
2018-12-14T17:49:52.937Z,2.76
2018-12-14T17:52:21.651Z,2.81
2018-12-14T17:54:49.981Z,2.84
2018-12-14T17:57:18.455Z,2.86
2018-12-14T17:59:46.776Z,2.87
2018-12-14T18:02:15.111Z,2.88
2018-12-14T18:04:43.510Z,2.90
2018-12-14T18:07:11.819Z,2.89
2018-12-14T18:09:40.174Z,2.88
2018-12-14T18:12:08.648Z,2.86
2018-12-14T18:14:37.138Z,2.85
2018-12-14T18:17:05.567Z,2.82
2018-12-14T18:19:33.925Z,2.80
2018-12-14T18:22:02.264Z,2.78
2018-12-14T18:24:30.614Z,2.73
2018-12-14T18:26:59.080Z,2.72
2018-12-14T18:29:27.668Z,2.62
2018-12-14T18:31:55.827Z,2.55
2018-12-14T18:34:24.182Z,2.56
2018-12-14T18:36:52.519Z,2.57
2018-12-14T18:39:20.854Z,2.58
2018-12-14T18:41:49.201Z,2.60
2018-12-14T18:44:17.621Z,2.62
2018-12-14T18:46:45.961Z,2.67
2018-12-14T18:49:14.320Z,2.72
2018-12-14T18:51:42.735Z,2.75
2018-12-14T18:54:11.122Z,2.74
2018-12-14T18:56:39.455Z,2.75
2018-12-14T18:59:07.801Z,2.76
2018-12-14T19:01:36.143Z,2.79
2018-12-14T19:04:04.961Z,2.79
2018-12-14T19:06:33.184Z,2.78
2018-12-14T19:09:01.529Z,2.80
2018-12-14T19:11:29.945Z,2.84
2018-12-14T19:13:58.526Z,2.86
2018-12-14T19:16:27.935Z,2.86
2018-12-14T19:18:56.698Z,2.88
2018-12-14T19:21:25.046Z,2.91
2018-12-14T19:23:53.404Z,2.93
2018-12-14T19:26:21.771Z,2.97
2018-12-14T19:28:50.686Z,2.96
2018-12-14T19:31:18.987Z,2.97
2018-12-14T19:33:47.336Z,3.00
2018-12-14T19:36:16.925Z,3.03
2018-12-14T19:38:45.372Z,3.05
2018-12-14T19:41:13.702Z,3.06
2018-12-14T19:43:42.465Z,3.09
2018-12-14T19:46:11.334Z,3.10
2018-12-14T19:48:40.351Z,3.09
2018-12-14T19:51:10.631Z,3.08
2018-12-14T19:53:39.495Z,3.04
2018-12-14T19:56:08.761Z,3.04
2018-12-14T19:58:37.254Z,3.05
2018-12-14T20:01:06.507Z,3.09
2018-12-14T20:03:34.798Z,3.10
2018-12-14T20:06:03.431Z,3.07
2018-12-14T20:08:31.709Z,3.05
2018-12-14T20:11:00.071Z,3.05
2018-12-14T20:13:29.006Z,3.08
2018-12-14T20:15:57.934Z,3.07
2018-12-14T20:18:26.067Z,3.08
2018-12-14T20:20:57.106Z,3.08
2018-12-14T20:23:24.743Z,3.08
2018-12-14T20:25:53.100Z,3.08
2018-12-14T20:28:21.452Z,3.06
2018-12-14T20:30:50.207Z,3.04
2018-12-14T20:33:18.571Z,3.02
2018-12-14T20:35:46.914Z,3.02
2018-12-14T20:38:15.264Z,2.98
2018-12-14T20:40:43.603Z,2.97
2018-12-14T20:43:11.933Z,2.98
2018-12-14T20:45:40.280Z,2.94
2018-12-14T20:48:08.663Z,2.93
2018-12-14T20:50:37.362Z,2.92
2018-12-14T20:53:06.430Z,2.94
2018-12-14T20:55:34.790Z,2.92
2018-12-14T20:58:03.345Z,2.94
2018-12-14T21:00:31.686Z,2.95
2018-12-14T21:03:00.465Z,2.97
2018-12-14T21:05:28.808Z,2.97
2018-12-14T21:07:57.163Z,2.97
2018-12-14T21:10:25.502Z,2.87
2018-12-14T21:12:53.836Z,2.83
2018-12-14T21:15:22.179Z,2.88
2018-12-14T21:17:50.536Z,2.91
2018-12-14T21:20:18.868Z,2.91
2018-12-14T21:22:49.122Z,2.88
2018-12-14T21:25:17.459Z,2.87
2018-12-14T21:27:45.797Z,2.77
2018-12-14T21:30:15.019Z,2.71
2018-12-14T21:32:44.190Z,2.71
2018-12-14T21:35:12.534Z,2.71
2018-12-14T21:37:40.877Z,2.76
2018-12-14T21:40:09.224Z,2.83
2018-12-14T21:42:37.554Z,2.89
2018-12-14T21:45:05.901Z,2.90
2018-12-14T21:47:34.749Z,2.93
2018-12-14T21:50:03.087Z,2.93
2018-12-14T21:52:31.649Z,2.93
2018-12-14T21:54:59.810Z,2.93
2018-12-14T21:57:28.372Z,2.92
2018-12-14T21:59:56.528Z,2.92
2018-12-14T22:02:24.879Z,2.86
2018-12-14T22:04:53.221Z,2.75
2018-12-14T22:07:21.558Z,2.67
2018-12-14T22:09:50.534Z,2.66
2018-12-14T22:12:18.865Z,2.67
2018-12-14T22:14:47.224Z,2.66
2018-12-14T22:17:15.563Z,2.62
2018-12-14T22:19:43.886Z,2.56
2018-12-14T22:22:12.548Z,2.55
2018-12-14T22:24:40.887Z,2.60
2018-12-14T22:27:10.120Z,2.64
2018-12-14T22:29:38.475Z,2.67
2018-12-14T22:32:06.823Z,2.68
2018-12-14T22:34:35.155Z,2.71
2018-12-14T22:37:03.511Z,2.71
2018-12-14T22:39:31.842Z,2.72
2018-12-14T22:42:00.171Z,2.75
2018-12-14T22:44:28.503Z,2.76
2018-12-14T22:46:56.838Z,2.76
2018-12-14T22:49:25.169Z,2.79
2018-12-14T22:51:53.505Z,2.80
2018-12-14T22:54:21.845Z,2.83
2018-12-14T22:56:50.194Z,2.84
2018-12-14T22:59:18.506Z,2.85
2018-12-14T23:01:46.861Z,2.83
2018-12-14T23:04:15.230Z,2.76
2018-12-14T23:06:43.572Z,2.75
2018-12-14T23:09:11.903Z,2.82
2018-12-14T23:11:40.233Z,2.88
2018-12-14T23:14:08.565Z,2.90
2018-12-14T23:16:36.893Z,2.90
2018-12-14T23:19:05.253Z,2.95
2018-12-14T23:21:33.566Z,2.99
2018-12-14T23:24:01.912Z,3.03
2018-12-14T23:26:30.243Z,3.07
2018-12-14T23:28:58.568Z,3.07
2018-12-14T23:31:26.899Z,3.04
2018-12-14T23:33:55.231Z,3.00
2018-12-14T23:36:23.564Z,2.97
2018-12-14T23:38:51.904Z,2.92
2018-12-14T23:41:20.258Z,2.92
2018-12-14T23:43:48.603Z,2.90
2018-12-14T23:46:16.946Z,2.84
2018-12-14T23:48:45.285Z,2.74
2018-12-14T23:51:13.834Z,2.72
2018-12-14T23:53:41.933Z,2.77
2018-12-14T23:56:10.261Z,2.82
2018-12-14T23:58:38.598Z,2.87
